createdAt,value
2019-03-13T00:00:41.681Z,992.00
2019-03-13T00:01:41.711Z,992.18
2019-03-13T00:02:41.738Z,992.14
2019-03-13T00:03:41.766Z,992.21
2019-03-13T00:04:41.797Z,992.32
2019-03-13T00:05:41.825Z,992.47
2019-03-13T00:06:41.853Z,992.48
2019-03-13T00:07:41.882Z,992.45
2019-03-13T00:08:41.909Z,992.49
2019-03-13T00:09:41.937Z,992.50
2019-03-13T00:10:41.964Z,992.62
2019-03-13T00:11:41.999Z,992.68
2019-03-13T00:12:42.022Z,992.74
2019-03-13T00:13:42.053Z,992.75
2019-03-13T00:14:42.078Z,992.70
2019-03-13T00:15:42.112Z,992.69
2019-03-13T00:16:42.134Z,992.62
2019-03-13T00:17:42.162Z,992.65
2019-03-13T00:18:42.193Z,992.62
2019-03-13T00:19:42.218Z,992.60
2019-03-13T00:20:42.249Z,992.60
2019-03-13T00:21:42.277Z,992.65
2019-03-13T00:22:42.354Z,992.63
2019-03-13T00:23:42.332Z,992.68
2019-03-13T00:24:42.361Z,992.63
2019-03-13T00:25:42.388Z,992.59
2019-03-13T00:26:42.415Z,992.66
2019-03-13T00:27:42.443Z,992.73
2019-03-13T00:28:42.472Z,992.69
2019-03-13T00:29:42.500Z,992.72
2019-03-13T00:30:42.527Z,992.74
2019-03-13T00:31:42.556Z,992.74
2019-03-13T00:32:42.583Z,992.74
2019-03-13T00:33:42.613Z,992.83
2019-03-13T00:34:42.640Z,992.86
2019-03-13T00:35:42.668Z,992.89
2019-03-13T00:36:42.697Z,992.92
2019-03-13T00:37:42.727Z,992.89
2019-03-13T00:38:42.754Z,992.93
2019-03-13T00:39:42.781Z,992.95
2019-03-13T00:40:42.809Z,993.06
2019-03-13T00:41:42.845Z,993.05
2019-03-13T00:42:42.864Z,993.12
2019-03-13T00:43:42.893Z,993.12
2019-03-13T00:44:42.921Z,993.20
2019-03-13T00:45:42.949Z,993.29
2019-03-13T00:46:42.977Z,993.37
2019-03-13T00:47:43.005Z,993.44
2019-03-13T00:48:43.034Z,993.40
2019-03-13T00:49:43.067Z,993.42
2019-03-13T00:50:43.089Z,993.33
2019-03-13T00:51:43.119Z,993.39
2019-03-13T00:52:43.145Z,993.46
2019-03-13T00:53:43.175Z,993.47
2019-03-13T00:54:43.203Z,993.56
2019-03-13T00:55:43.230Z,993.62
2019-03-13T00:56:43.258Z,993.68
2019-03-13T00:57:43.287Z,993.71
2019-03-13T00:58:43.364Z,993.81
2019-03-13T00:59:43.341Z,993.77
2019-03-13T01:00:43.369Z,993.85
2019-03-13T01:01:43.396Z,993.76
2019-03-13T01:02:43.425Z,993.81
2019-03-13T01:03:43.452Z,993.88
2019-03-13T01:04:43.482Z,993.87
2019-03-13T01:05:43.508Z,993.80
2019-03-13T01:06:43.535Z,993.83
2019-03-13T01:07:43.566Z,993.85
2019-03-13T01:08:43.593Z,993.86
2019-03-13T01:09:43.619Z,993.89
2019-03-13T01:10:43.688Z,993.90
2019-03-13T01:11:43.674Z,993.89
2019-03-13T01:12:43.703Z,993.96
2019-03-13T01:13:43.731Z,993.89
2019-03-13T01:14:43.757Z,993.89
2019-03-13T01:15:43.785Z,993.87
2019-03-13T01:16:43.814Z,993.90
2019-03-13T01:17:43.846Z,993.85
2019-03-13T01:18:43.876Z,993.93
2019-03-13T01:19:43.897Z,993.88
2019-03-13T01:20:43.925Z,993.98
2019-03-13T01:21:43.953Z,993.98
2019-03-13T01:22:43.979Z,993.93
2019-03-13T01:23:44.032Z,993.98
2019-03-13T01:24:44.034Z,993.96
2019-03-13T01:25:44.091Z,994.04
2019-03-13T01:26:44.120Z,994.00
2019-03-13T01:27:44.144Z,994.03
2019-03-13T01:28:44.378Z,994.03
2019-03-13T01:29:44.200Z,993.99
2019-03-13T01:30:44.934Z,994.04
2019-03-13T01:31:45.666Z,994.00
2019-03-13T01:32:44.277Z,994.07
2019-03-13T01:34:44.614Z,994.10
2019-03-13T01:36:44.388Z,994.11
2019-03-13T01:37:44.417Z,994.17
2019-03-13T01:38:44.446Z,994.16
2019-03-13T01:39:44.470Z,994.11
2019-03-13T01:40:44.474Z,994.15
2019-03-13T01:41:44.503Z,994.13
2019-03-13T01:42:44.531Z,994.10
2019-03-13T01:43:44.559Z,994.13
2019-03-13T01:44:44.585Z,994.14
2019-03-13T01:45:44.614Z,994.10
2019-03-13T01:46:44.640Z,994.17
2019-03-13T01:47:44.667Z,994.18
2019-03-13T01:48:44.697Z,994.25
2019-03-13T01:49:44.725Z,994.24
2019-03-13T01:50:44.751Z,994.28
2019-03-13T01:51:44.778Z,994.30
2019-03-13T01:52:44.817Z,994.26
2019-03-13T01:53:44.835Z,994.27
2019-03-13T01:54:44.862Z,994.39
2019-03-13T01:55:44.888Z,994.41
2019-03-13T01:56:44.916Z,994.44
2019-03-13T01:57:44.948Z,994.45
2019-03-13T01:58:44.974Z,994.54
2019-03-13T01:59:44.997Z,994.51
2019-03-13T02:00:45.028Z,994.50
2019-03-13T02:01:45.057Z,994.51
2019-03-13T02:02:45.081Z,994.47
2019-03-13T02:03:45.107Z,994.51
2019-03-13T02:04:45.135Z,994.44
2019-03-13T02:05:45.163Z,994.42
2019-03-13T02:06:45.188Z,994.35
2019-03-13T02:07:45.217Z,994.38
2019-03-13T02:08:45.245Z,994.40
2019-03-13T02:09:45.273Z,994.40
2019-03-13T02:10:45.354Z,994.42
2019-03-13T02:11:45.384Z,994.43
2019-03-13T02:12:45.356Z,994.45
2019-03-13T02:13:45.382Z,994.47
2019-03-13T02:14:45.435Z,994.42
2019-03-13T02:15:45.436Z,994.38
2019-03-13T02:16:45.487Z,994.36
2019-03-13T02:17:45.515Z,994.42
2019-03-13T02:18:45.542Z,994.46
2019-03-13T02:19:45.569Z,994.51
2019-03-13T02:20:45.596Z,994.56
2019-03-13T02:22:45.651Z,994.50
2019-03-13T02:23:45.882Z,994.56
2019-03-13T02:24:45.681Z,994.60
2019-03-13T02:25:45.709Z,994.61
2019-03-13T02:26:45.890Z,994.57
2019-03-13T02:27:45.766Z,994.59
2019-03-13T02:28:45.791Z,994.59
2019-03-13T02:29:45.818Z,994.63
2019-03-13T02:30:45.845Z,994.64
2019-03-13T02:31:45.873Z,994.64
2019-03-13T02:32:45.901Z,994.62
2019-03-13T02:33:45.928Z,994.62
2019-03-13T02:34:45.960Z,994.63
2019-03-13T02:35:45.983Z,994.67
2019-03-13T02:36:46.011Z,994.61
2019-03-13T02:37:46.040Z,994.66
2019-03-13T02:38:46.065Z,994.64
2019-03-13T02:39:46.095Z,994.68
2019-03-13T02:40:46.120Z,994.70
2019-03-13T02:41:46.147Z,994.69
2019-03-13T02:42:46.175Z,994.71
2019-03-13T02:43:46.204Z,994.73
2019-03-13T02:44:46.229Z,994.68
2019-03-13T02:45:46.257Z,994.73
2019-03-13T02:46:46.284Z,994.75
2019-03-13T02:47:46.311Z,994.73
2019-03-13T02:48:46.338Z,994.72
2019-03-13T02:49:46.416Z,994.75
2019-03-13T02:50:46.393Z,994.72
2019-03-13T02:51:46.423Z,994.74
2019-03-13T02:52:46.449Z,994.76
2019-03-13T02:53:46.475Z,994.79
2019-03-13T02:54:46.511Z,994.84
2019-03-13T02:55:46.531Z,994.82
2019-03-13T02:56:46.558Z,994.87
2019-03-13T02:57:46.589Z,994.84
2019-03-13T02:58:46.613Z,994.80
2019-03-13T02:59:46.641Z,994.88
2019-03-13T03:00:46.671Z,994.86
2019-03-13T03:01:46.694Z,994.87
2019-03-13T03:02:46.724Z,994.92
2019-03-13T03:03:46.751Z,994.95
2019-03-13T03:04:46.778Z,994.92
2019-03-13T03:05:46.809Z,994.97
2019-03-13T03:06:46.837Z,994.95
2019-03-13T03:07:46.868Z,994.99
2019-03-13T03:08:46.888Z,994.92
2019-03-13T03:09:46.917Z,994.98
2019-03-13T03:10:46.942Z,995.03
2019-03-13T03:11:46.970Z,995.10
2019-03-13T03:12:46.998Z,995.21
2019-03-13T03:13:47.026Z,995.21
2019-03-13T03:14:47.052Z,995.20
2019-03-13T03:15:47.078Z,995.08
2019-03-13T03:16:47.116Z,995.01
2019-03-13T03:17:47.160Z,994.98
2019-03-13T03:18:47.160Z,994.98
2019-03-13T03:19:47.188Z,995.03
2019-03-13T03:20:47.216Z,995.00
2019-03-13T03:21:47.247Z,994.97
2019-03-13T03:22:47.271Z,995.01
2019-03-13T03:23:47.299Z,994.92
2019-03-13T03:24:47.346Z,994.99
2019-03-13T03:25:47.355Z,994.93
2019-03-13T03:26:47.389Z,994.97
2019-03-13T03:27:47.409Z,994.95
2019-03-13T03:28:47.435Z,994.90
2019-03-13T03:29:47.462Z,994.94
2019-03-13T03:30:47.489Z,994.99
2019-03-13T03:31:47.516Z,994.98
2019-03-13T03:32:47.581Z,995.07
2019-03-13T03:33:47.578Z,995.05
2019-03-13T03:34:47.613Z,995.10
2019-03-13T03:35:47.635Z,995.14
2019-03-13T03:36:47.655Z,995.19
2019-03-13T03:37:47.691Z,995.19
2019-03-13T03:38:47.706Z,995.14
2019-03-13T03:39:47.733Z,995.16
2019-03-13T03:40:47.765Z,995.17
2019-03-13T03:41:47.788Z,995.21
2019-03-13T03:42:47.815Z,995.26
2019-03-13T03:43:47.842Z,995.30
2019-03-13T03:44:47.870Z,995.20
2019-03-13T03:45:47.898Z,995.16
2019-03-13T03:46:47.973Z,995.13
2019-03-13T03:47:48.145Z,995.16
2019-03-13T03:48:47.980Z,995.17
2019-03-13T03:49:48.005Z,995.17
2019-03-13T03:50:48.035Z,995.23
2019-03-13T03:51:48.204Z,995.20
2019-03-13T03:52:48.098Z,995.23
2019-03-13T03:53:48.115Z,995.21
2019-03-13T03:54:48.140Z,995.18
2019-03-13T03:55:48.168Z,995.21
2019-03-13T03:56:48.195Z,995.19
2019-03-13T03:57:48.221Z,995.24
2019-03-13T03:58:48.248Z,995.21
2019-03-13T03:59:48.277Z,995.20
2019-03-13T04:00:48.354Z,995.21
2019-03-13T04:01:48.331Z,995.22
2019-03-13T04:02:48.413Z,995.19
2019-03-13T04:03:48.385Z,995.22
2019-03-13T04:04:48.412Z,995.26
2019-03-13T04:05:48.438Z,995.33
2019-03-13T04:06:48.469Z,995.33
2019-03-13T04:07:48.492Z,995.30
2019-03-13T04:08:48.520Z,995.31
2019-03-13T04:09:48.550Z,995.30
2019-03-13T04:10:48.574Z,995.24
2019-03-13T04:11:48.605Z,995.24
2019-03-13T04:12:48.628Z,995.20
2019-03-13T04:13:48.663Z,995.20
2019-03-13T04:14:48.681Z,995.18
2019-03-13T04:15:48.709Z,995.24
2019-03-13T04:16:48.750Z,995.29
2019-03-13T04:17:48.770Z,995.30
2019-03-13T04:18:48.790Z,995.32
2019-03-13T04:19:48.817Z,995.32
2019-03-13T04:20:48.845Z,995.33
2019-03-13T04:21:48.871Z,995.32
2019-03-13T04:22:48.898Z,995.27
2019-03-13T04:23:49.005Z,995.34
2019-03-13T04:24:48.953Z,995.33
2019-03-13T04:25:48.979Z,995.38
2019-03-13T04:26:49.016Z,995.34
2019-03-13T04:27:49.042Z,995.40
2019-03-13T04:28:49.065Z,995.38
2019-03-13T04:29:49.088Z,995.44
2019-03-13T04:30:49.113Z,995.37
2019-03-13T04:31:49.141Z,995.41
2019-03-13T04:32:49.166Z,995.41
2019-03-13T04:33:49.196Z,995.39
2019-03-13T04:34:49.221Z,995.35
2019-03-13T04:35:49.254Z,995.46
2019-03-13T04:36:49.278Z,995.29
2019-03-13T04:37:49.306Z,995.38
2019-03-13T04:38:49.335Z,995.34
2019-03-13T04:39:49.357Z,995.29
2019-03-13T04:40:49.382Z,995.31
2019-03-13T04:41:49.409Z,995.38
2019-03-13T04:42:49.436Z,995.31
2019-03-13T04:43:49.514Z,995.31
2019-03-13T04:44:49.490Z,995.31
2019-03-13T04:45:49.517Z,995.33
2019-03-13T04:46:49.542Z,995.35
2019-03-13T04:47:49.574Z,995.36
2019-03-13T04:48:49.597Z,995.31
2019-03-13T04:49:49.623Z,995.35
2019-03-13T04:50:49.650Z,995.27
2019-03-13T04:51:49.676Z,995.34
2019-03-13T04:52:49.706Z,995.33
2019-03-13T04:53:49.731Z,995.36
2019-03-13T04:54:49.757Z,995.16
2019-03-13T04:55:52.349Z,995.29
2019-03-13T04:56:49.810Z,995.22
2019-03-13T04:57:49.840Z,995.24
2019-03-13T04:58:49.864Z,995.25
2019-03-13T04:59:49.889Z,995.27
2019-03-13T05:00:49.917Z,995.32
2019-03-13T05:01:49.947Z,995.39
2019-03-13T05:02:49.969Z,995.28
2019-03-13T05:03:49.997Z,995.34
2019-03-13T05:04:50.023Z,995.34
2019-03-13T05:05:50.051Z,995.39
2019-03-13T05:06:50.075Z,995.43
2019-03-13T05:07:50.103Z,995.37
2019-03-13T05:08:50.129Z,995.36
2019-03-13T05:09:50.156Z,995.40
2019-03-13T05:10:50.183Z,995.36
2019-03-13T05:11:50.209Z,995.38
2019-03-13T05:12:50.257Z,995.41
2019-03-13T05:13:50.264Z,995.37
2019-03-13T05:14:50.289Z,995.39
2019-03-13T05:15:50.316Z,995.40
2019-03-13T05:16:50.344Z,995.44
2019-03-13T05:17:50.368Z,995.41
2019-03-13T05:18:50.393Z,995.46
2019-03-13T05:19:50.420Z,995.48
2019-03-13T05:20:50.449Z,995.44
2019-03-13T05:21:50.475Z,995.45
2019-03-13T05:22:50.499Z,995.38
2019-03-13T05:23:50.528Z,995.39
2019-03-13T05:24:50.553Z,995.40
2019-03-13T05:25:50.579Z,995.36
2019-03-13T05:26:50.606Z,995.41
2019-03-13T05:27:50.633Z,995.33
2019-03-13T05:28:50.660Z,995.30
2019-03-13T05:29:50.692Z,995.36
2019-03-13T05:30:53.048Z,995.34
2019-03-13T05:31:50.738Z,995.28
2019-03-13T05:32:50.766Z,995.30
2019-03-13T05:33:50.803Z,995.35
2019-03-13T05:34:50.820Z,995.28
2019-03-13T05:35:50.845Z,995.21
2019-03-13T05:36:50.876Z,995.25
2019-03-13T05:37:51.004Z,995.28
2019-03-13T05:38:50.926Z,995.29
2019-03-13T05:39:50.953Z,995.31
2019-03-13T05:40:50.978Z,995.28
2019-03-13T05:41:51.007Z,995.36
2019-03-13T05:42:51.036Z,995.33
2019-03-13T05:43:51.060Z,995.35
2019-03-13T05:44:51.086Z,995.35
2019-03-13T05:45:51.114Z,995.37
2019-03-13T05:46:51.139Z,995.38
2019-03-13T05:47:51.169Z,995.40
2019-03-13T05:48:51.194Z,995.39
2019-03-13T05:49:51.220Z,995.38
2019-03-13T05:50:51.247Z,995.33
2019-03-13T05:51:51.275Z,995.35
2019-03-13T05:52:51.301Z,995.37
2019-03-13T05:53:51.329Z,995.33
2019-03-13T05:54:51.353Z,995.35
2019-03-13T05:55:51.381Z,995.28
2019-03-13T05:56:51.407Z,995.32
2019-03-13T05:57:51.435Z,995.28
2019-03-13T05:58:51.460Z,995.32
2019-03-13T05:59:51.488Z,995.35
2019-03-13T06:00:51.514Z,995.36
2019-03-13T06:01:51.541Z,995.31
2019-03-13T06:02:51.579Z,995.33
2019-03-13T06:03:51.599Z,995.34
2019-03-13T06:04:51.621Z,995.28
2019-03-13T06:05:51.647Z,995.26
2019-03-13T06:06:51.672Z,995.23
2019-03-13T06:07:51.701Z,995.25
2019-03-13T06:08:51.732Z,995.30
2019-03-13T06:09:51.754Z,995.33
2019-03-13T06:10:51.781Z,995.32
2019-03-13T06:11:51.807Z,995.34
2019-03-13T06:12:51.833Z,995.32
2019-03-13T06:13:51.863Z,995.40
2019-03-13T06:14:51.886Z,995.41
2019-03-13T06:15:51.914Z,995.45
2019-03-13T06:16:51.942Z,995.37
2019-03-13T06:17:51.969Z,995.36
2019-03-13T06:18:53.105Z,995.39
2019-03-13T06:19:52.026Z,995.41
2019-03-13T06:20:52.143Z,995.34
2019-03-13T06:21:52.073Z,995.36
2019-03-13T06:22:52.100Z,995.41
2019-03-13T06:23:52.128Z,995.34
2019-03-13T06:24:52.155Z,995.40
2019-03-13T06:25:52.181Z,995.36
2019-03-13T06:26:52.206Z,995.31
2019-03-13T06:27:52.236Z,995.34
2019-03-13T06:28:52.261Z,995.35
2019-03-13T06:29:52.287Z,995.42
2019-03-13T06:30:52.315Z,995.42
2019-03-13T06:31:52.342Z,995.44
2019-03-13T06:32:52.439Z,995.49
2019-03-13T06:33:52.395Z,995.54
2019-03-13T06:34:52.422Z,995.58
2019-03-13T06:35:52.473Z,995.55
2019-03-13T06:36:52.482Z,995.55
2019-03-13T06:37:52.502Z,995.55
2019-03-13T06:38:52.528Z,995.52
2019-03-13T06:39:52.556Z,995.45
2019-03-13T06:40:52.585Z,995.49
2019-03-13T06:41:52.611Z,995.49
2019-03-13T06:42:52.635Z,995.48
2019-03-13T06:43:52.663Z,995.47
2019-03-13T06:44:52.691Z,995.45
2019-03-13T06:45:52.717Z,995.40
2019-03-13T06:46:52.744Z,995.39
2019-03-13T06:47:52.774Z,995.36
2019-03-13T06:48:52.799Z,995.39
2019-03-13T06:49:52.825Z,995.30
2019-03-13T06:50:52.850Z,995.27
2019-03-13T06:51:52.881Z,995.30
2019-03-13T06:52:52.908Z,995.33
2019-03-13T06:53:52.936Z,995.31
2019-03-13T06:54:52.960Z,995.25
2019-03-13T06:55:52.988Z,995.14
2019-03-13T06:56:53.015Z,995.23
2019-03-13T06:57:53.043Z,995.18
2019-03-13T06:58:53.068Z,995.25
2019-03-13T06:59:53.095Z,995.22
2019-03-13T07:00:53.122Z,995.21
2019-03-13T07:01:53.152Z,995.22
2019-03-13T07:02:53.177Z,995.28
2019-03-13T07:03:53.204Z,995.22
2019-03-13T07:04:53.232Z,995.20
2019-03-13T07:05:53.258Z,995.16
2019-03-13T07:06:53.285Z,995.12
2019-03-13T07:07:53.311Z,995.06
2019-03-13T07:08:53.339Z,995.12
2019-03-13T07:09:53.364Z,995.16
2019-03-13T07:10:53.390Z,995.12
2019-03-13T07:11:53.419Z,995.18
2019-03-13T07:12:53.447Z,995.22
2019-03-13T07:13:53.473Z,995.20
2019-03-13T07:14:53.499Z,995.28
2019-03-13T07:15:53.527Z,995.25
2019-03-13T07:16:53.554Z,995.26
2019-03-13T07:17:53.582Z,995.27
2019-03-13T07:18:53.607Z,995.28
2019-03-13T07:19:53.634Z,995.34
2019-03-13T07:20:53.663Z,995.32
2019-03-13T07:21:53.690Z,995.26
2019-03-13T07:22:53.716Z,995.37
2019-03-13T07:23:53.743Z,995.29
2019-03-13T07:24:53.770Z,995.32
2019-03-13T07:25:53.796Z,995.27
2019-03-13T07:26:53.823Z,995.21
2019-03-13T07:27:53.851Z,995.30
2019-03-13T07:28:53.880Z,995.28
2019-03-13T07:29:53.907Z,995.28
2019-03-13T07:30:53.938Z,995.33
2019-03-13T07:31:53.962Z,995.34
2019-03-13T07:32:56.515Z,995.37
2019-03-13T07:33:54.017Z,995.39
2019-03-13T07:34:54.053Z,995.31
2019-03-13T07:35:54.072Z,995.31
2019-03-13T07:36:54.099Z,995.19
2019-03-13T07:37:54.124Z,995.25
2019-03-13T07:38:54.154Z,995.22
2019-03-13T07:39:54.181Z,995.26
2019-03-13T07:40:54.209Z,995.41
2019-03-13T07:41:54.236Z,995.38
2019-03-13T07:42:54.262Z,995.36
2019-03-13T07:43:54.292Z,995.27
2019-03-13T07:44:54.317Z,995.24
2019-03-13T07:45:54.396Z,995.20
2019-03-13T07:46:54.374Z,995.15
2019-03-13T07:47:54.400Z,995.23
2019-03-13T07:48:54.477Z,995.32
2019-03-13T07:49:54.523Z,995.43
2019-03-13T07:50:54.485Z,995.45
2019-03-13T07:51:54.561Z,995.38
2019-03-13T07:52:54.542Z,995.28
2019-03-13T07:53:54.570Z,995.21
2019-03-13T07:54:54.595Z,995.27
2019-03-13T07:55:54.623Z,995.30
2019-03-13T07:56:54.650Z,995.26
2019-03-13T07:57:54.679Z,995.20
2019-03-13T07:58:54.706Z,995.33
2019-03-13T07:59:54.736Z,995.35
2019-03-13T08:00:54.765Z,995.44
2019-03-13T08:01:54.793Z,995.44
2019-03-13T08:02:54.820Z,995.40
2019-03-13T08:03:54.874Z,995.33
2019-03-13T08:04:54.883Z,995.42
2019-03-13T08:05:54.906Z,995.37
2019-03-13T08:06:54.948Z,995.40
2019-03-13T08:07:54.962Z,995.38
2019-03-13T08:08:54.992Z,995.36
2019-03-13T08:09:55.041Z,995.41
2019-03-13T08:10:55.051Z,995.39
2019-03-13T08:11:55.080Z,995.39
2019-03-13T08:12:55.108Z,995.38
2019-03-13T08:13:55.141Z,995.39
2019-03-13T08:14:55.166Z,995.42
2019-03-13T08:15:55.200Z,995.42
2019-03-13T08:16:55.226Z,995.40
2019-03-13T08:17:55.254Z,995.34
2019-03-13T08:18:55.281Z,995.36
2019-03-13T08:19:55.314Z,995.43
2019-03-13T08:20:55.343Z,995.36
2019-03-13T08:21:55.372Z,995.29
2019-03-13T08:22:55.400Z,995.29
2019-03-13T08:23:55.431Z,995.31
2019-03-13T08:24:55.459Z,995.35
2019-03-13T08:25:55.490Z,995.37
2019-03-13T08:26:55.519Z,995.41
2019-03-13T08:27:55.549Z,995.35
2019-03-13T08:28:55.581Z,995.33
2019-03-13T08:29:55.608Z,995.32
2019-03-13T08:30:55.638Z,995.36
2019-03-13T08:31:55.666Z,995.47
2019-03-13T08:32:55.697Z,995.57
2019-03-13T08:33:55.728Z,995.47
2019-03-13T08:34:55.756Z,995.54
2019-03-13T08:35:55.789Z,995.42
2019-03-13T08:36:55.816Z,995.38
2019-03-13T08:37:55.847Z,995.38
2019-03-13T08:38:55.876Z,995.32
2019-03-13T08:39:55.906Z,995.30
2019-03-13T08:40:55.936Z,995.27
2019-03-13T08:41:55.967Z,995.35
2019-03-13T08:42:55.996Z,995.39
2019-03-13T08:43:56.026Z,995.32
2019-03-13T08:44:58.810Z,995.38
2019-03-13T08:45:56.087Z,995.27
2019-03-13T08:46:56.119Z,995.25
2019-03-13T08:47:56.146Z,995.17
2019-03-13T08:48:56.187Z,995.33
2019-03-13T08:49:56.206Z,995.36
2019-03-13T08:50:56.239Z,995.25
2019-03-13T08:51:56.267Z,995.39
2019-03-13T08:52:56.296Z,995.34
2019-03-13T08:53:56.447Z,995.34
2019-03-13T08:54:56.355Z,995.34
2019-03-13T08:55:56.385Z,995.33
2019-03-13T08:56:56.416Z,995.40
2019-03-13T08:57:56.445Z,995.41
2019-03-13T08:58:56.474Z,995.51
2019-03-13T08:59:56.503Z,995.77
2019-03-13T09:00:56.532Z,995.93
2019-03-13T09:01:56.562Z,995.95
2019-03-13T09:02:56.594Z,995.43
2019-03-13T09:03:56.624Z,995.45
2019-03-13T09:04:56.654Z,995.82
2019-03-13T09:05:56.685Z,995.66
2019-03-13T09:06:56.718Z,995.25
2019-03-13T09:07:56.749Z,995.08
2019-03-13T09:08:56.782Z,995.18
2019-03-13T09:09:56.907Z,995.33
2019-03-13T09:10:56.845Z,995.47
2019-03-13T09:11:56.877Z,995.16
2019-03-13T09:13:01.398Z,995.20
2019-03-13T09:13:56.947Z,995.28
2019-03-13T09:14:56.977Z,995.93
2019-03-13T09:15:57.011Z,995.03
2019-03-13T09:16:57.044Z,995.55
2019-03-13T09:17:57.078Z,995.14
2019-03-13T09:18:57.112Z,995.20
2019-03-13T09:19:57.147Z,995.86
2019-03-13T09:20:57.182Z,995.70
2019-03-13T09:21:57.215Z,995.10
2019-03-13T09:22:57.251Z,995.04
2019-03-13T09:23:57.284Z,995.08
2019-03-13T09:25:10.724Z,995.09
2019-03-13T09:25:57.352Z,994.97
2019-03-13T09:26:57.386Z,994.98
2019-03-13T09:27:57.420Z,994.95
2019-03-13T09:28:57.455Z,995.01
2019-03-13T09:29:57.490Z,994.95
2019-03-13T09:30:57.523Z,995.00
2019-03-13T09:31:57.561Z,995.88
2019-03-13T09:32:57.590Z,994.96
2019-03-13T09:33:57.625Z,994.89
2019-03-13T09:34:57.657Z,995.04
2019-03-13T09:35:57.740Z,994.82
2019-03-13T09:36:57.725Z,994.83
2019-03-13T09:37:57.759Z,995.33
2019-03-13T09:38:57.793Z,995.68
2019-03-13T09:39:57.827Z,994.74
2019-03-13T09:40:57.862Z,994.70
2019-03-13T09:41:57.898Z,995.03
2019-03-13T09:42:57.932Z,994.83
2019-03-13T09:43:59.866Z,994.75
2019-03-13T09:44:58.004Z,994.71
2019-03-13T09:45:58.039Z,994.79
2019-03-13T09:46:58.077Z,994.91
2019-03-13T09:47:58.108Z,994.78
2019-03-13T09:48:58.143Z,994.64
2019-03-13T09:49:58.178Z,994.49
2019-03-13T09:50:58.211Z,994.63
2019-03-13T09:51:58.248Z,994.60
2019-03-13T09:52:58.335Z,994.77
2019-03-13T09:53:58.316Z,995.19
2019-03-13T09:54:58.351Z,994.66
2019-03-13T09:55:58.385Z,994.59
2019-03-13T09:56:58.424Z,995.71
2019-03-13T09:57:58.454Z,995.55
2019-03-13T09:58:58.487Z,994.61
2019-03-13T09:59:58.524Z,994.49
2019-03-13T10:00:58.557Z,994.68
2019-03-13T10:01:58.591Z,994.55
2019-03-13T10:02:58.653Z,994.67
2019-03-13T10:03:58.662Z,994.55
2019-03-13T10:04:58.747Z,994.52
2019-03-13T10:05:58.730Z,994.66
2019-03-13T10:06:58.857Z,994.65
2019-03-13T10:07:58.799Z,994.69
2019-03-13T10:08:58.833Z,994.70
2019-03-13T10:09:58.878Z,994.71
2019-03-13T10:10:58.901Z,994.72
2019-03-13T10:11:58.933Z,994.72
2019-03-13T10:12:58.974Z,994.69
2019-03-13T10:13:59.002Z,994.49
2019-03-13T10:14:59.057Z,994.56
2019-03-13T10:15:59.069Z,994.58
2019-03-13T10:17:09.759Z,994.71
2019-03-13T10:17:59.139Z,994.45
2019-03-13T10:18:59.168Z,994.71
2019-03-13T10:19:59.202Z,994.63
2019-03-13T10:20:59.234Z,994.63
2019-03-13T10:21:59.265Z,994.55
2019-03-13T10:22:59.297Z,994.68
2019-03-13T10:23:59.329Z,994.82
2019-03-13T10:24:59.362Z,994.90
2019-03-13T10:25:59.394Z,994.83
2019-03-13T10:26:59.426Z,994.63
2019-03-13T10:27:59.460Z,994.83
2019-03-13T10:28:59.491Z,995.23
2019-03-13T10:29:59.524Z,996.06
2019-03-13T10:30:59.555Z,995.14
2019-03-13T10:31:59.598Z,994.62
2019-03-13T10:32:59.670Z,994.65
2019-03-13T10:33:59.654Z,994.53
2019-03-13T10:34:59.686Z,994.45
2019-03-13T10:35:59.719Z,994.47
2019-03-13T10:36:59.753Z,994.38
2019-03-13T10:38:12.810Z,994.46
2019-03-13T10:38:59.818Z,994.47
2019-03-13T10:39:59.851Z,994.42
2019-03-13T10:40:59.885Z,994.47
2019-03-13T10:41:59.922Z,994.52
2019-03-13T10:42:59.953Z,994.59
2019-03-13T10:43:59.981Z,994.44
2019-03-13T10:45:00.013Z,994.56
2019-03-13T10:46:00.047Z,994.47
2019-03-13T10:47:00.076Z,994.43
2019-03-13T10:48:00.112Z,994.35
2019-03-13T10:49:00.143Z,994.33
2019-03-13T10:50:00.426Z,994.29
2019-03-13T10:51:00.206Z,994.32
2019-03-13T10:52:00.237Z,994.24
2019-03-13T10:53:00.270Z,994.35
2019-03-13T10:54:00.302Z,994.20
2019-03-13T10:55:00.449Z,994.71
2019-03-13T10:56:00.364Z,994.39
2019-03-13T10:57:01.671Z,995.91
2019-03-13T10:58:00.432Z,995.07
2019-03-13T10:59:00.460Z,994.32
2019-03-13T11:00:00.493Z,994.82
2019-03-13T11:01:00.531Z,995.79
2019-03-13T11:02:00.558Z,995.83
2019-03-13T11:03:00.592Z,994.56
2019-03-13T11:04:00.628Z,994.40
2019-03-13T11:05:00.669Z,994.23
2019-03-13T11:06:00.697Z,994.25
2019-03-13T11:07:00.750Z,995.10
2019-03-13T11:08:00.766Z,995.22
2019-03-13T11:09:00.801Z,994.28
2019-03-13T11:10:00.837Z,994.09
2019-03-13T11:11:00.873Z,994.16
2019-03-13T11:12:00.927Z,994.22
2019-03-13T11:13:00.946Z,994.02
2019-03-13T11:14:14.439Z,994.20
2019-03-13T11:15:01.012Z,994.01
2019-03-13T11:16:01.049Z,993.97
2019-03-13T11:17:01.084Z,993.98
2019-03-13T11:18:01.119Z,993.96
2019-03-13T11:19:01.151Z,994.00
2019-03-13T11:20:01.186Z,994.04
2019-03-13T11:21:01.220Z,994.01
2019-03-13T11:22:01.254Z,993.96
2019-03-13T11:23:01.288Z,993.92
2019-03-13T11:24:01.374Z,993.95
2019-03-13T11:25:01.354Z,994.01
2019-03-13T11:26:01.388Z,993.91
2019-03-13T11:27:01.423Z,993.96
2019-03-13T11:28:01.455Z,994.07
2019-03-13T11:29:01.492Z,994.19
2019-03-13T11:30:01.521Z,994.30
2019-03-13T11:31:01.552Z,994.37
2019-03-13T11:32:01.583Z,994.43
2019-03-13T11:33:01.616Z,994.40
2019-03-13T11:34:01.649Z,994.44
2019-03-13T11:35:01.681Z,994.39
2019-03-13T11:36:01.714Z,994.45
2019-03-13T11:37:01.748Z,994.47
2019-03-13T11:38:01.778Z,996.69
2019-03-13T11:39:01.811Z,995.98
2019-03-13T11:40:01.844Z,995.01
2019-03-13T11:41:01.877Z,994.48
2019-03-13T11:42:01.911Z,994.47
2019-03-13T11:43:01.943Z,994.29
2019-03-13T11:44:01.978Z,994.19
2019-03-13T11:45:02.023Z,994.35
2019-03-13T11:46:02.046Z,994.13
2019-03-13T11:47:02.078Z,994.06
2019-03-13T11:48:02.113Z,994.02
2019-03-13T11:49:02.147Z,994.11
2019-03-13T11:50:02.180Z,993.88
2019-03-13T11:51:02.216Z,994.01
2019-03-13T11:52:02.247Z,993.95
2019-03-13T11:53:02.280Z,994.01
2019-03-13T11:54:02.317Z,993.94
2019-03-13T11:55:02.351Z,993.96
2019-03-13T11:56:02.381Z,994.01
2019-03-13T11:57:02.413Z,993.94
2019-03-13T11:58:02.447Z,993.97
2019-03-13T11:59:02.482Z,994.02
2019-03-13T12:00:02.512Z,993.89
2019-03-13T12:01:02.543Z,993.85
2019-03-13T12:02:02.578Z,993.83
2019-03-13T12:03:02.607Z,993.78
2019-03-13T12:04:02.638Z,993.75
2019-03-13T12:05:02.671Z,993.71
2019-03-13T12:06:02.704Z,993.66
2019-03-13T12:07:02.734Z,993.69
2019-03-13T12:08:02.767Z,993.61
2019-03-13T12:09:02.805Z,993.69
2019-03-13T12:10:02.829Z,993.68
2019-03-13T12:11:02.860Z,993.61
2019-03-13T12:12:02.895Z,993.66
2019-03-13T12:13:02.921Z,993.61
2019-03-13T12:14:02.954Z,993.66
2019-03-13T12:15:02.984Z,993.51
2019-03-13T12:16:03.015Z,993.53
2019-03-13T12:17:03.071Z,993.55
2019-03-13T12:18:03.076Z,993.70
2019-03-13T12:19:03.107Z,993.98
2019-03-13T12:20:03.137Z,994.04
2019-03-13T12:21:03.168Z,994.12
2019-03-13T12:22:03.201Z,994.10
2019-03-13T12:23:03.228Z,994.08
2019-03-13T12:24:03.261Z,994.05
2019-03-13T12:25:03.287Z,994.08
2019-03-13T12:26:03.608Z,994.37
2019-03-13T12:27:03.347Z,994.33
2019-03-13T12:28:03.376Z,994.65
2019-03-13T12:29:03.406Z,994.41
2019-03-13T12:30:03.438Z,994.36
2019-03-13T12:31:03.474Z,994.27
2019-03-13T12:32:03.497Z,994.26